Time;durP1;ratioP1;P1;durP2;ratioP2;P2;SDS_P1;SDS_P2;PMS_P1;PMS_P2;Temp;Humidity;BMP_temperature;BMP_pressure;BME280_temperature;BME280_humidity;BME280_pressure;Samples;Min_cycle;Max_cycle;Signal;HPM_P1;HPM_P2
2023/09/02 00:00:20;;;;;;;3.20;2.90;;;22.40;99.90;;;;;;6202902;28;96282;-67
2023/09/02 00:03:22;;;;;;;3.10;2.80;;;22.40;99.90;;;;;;6202588;28;94148;-67
2023/09/02 00:06:24;;;;;;;2.90;2.67;;;22.40;99.90;;;;;;6186357;28;93262;-67
2023/09/02 00:09:26;;;;;;;3.00;2.70;;;22.40;99.90;;;;;;6200989;28;94114;-66
2023/09/02 00:12:29;;;;;;;3.10;2.80;;;22.40;99.90;;;;;;6191283;28;92205;-66
2023/09/02 00:15:32;;;;;;;3.92;3.22;;;22.40;99.90;;;;;;6193364;28;95370;-66
2023/09/02 00:18:34;;;;;;;3.15;2.85;;;22.40;99.90;;;;;;6195045;28;93966;-67
2023/09/02 00:21:36;;;;;;;3.60;3.30;;;22.40;99.90;;;;;;6203362;28;94247;-67
2023/09/02 00:24:38;;;;;;;3.22;2.92;;;22.40;99.90;;;;;;6188145;28;94579;-66
2023/09/02 00:27:40;;;;;;;3.92;2.85;;;22.40;99.90;;;;;;6191896;28;94086;-67
2023/09/02 00:30:44;;;;;;;3.42;3.00;;;22.40;99.90;;;;;;6194351;28;94171;-67
2023/09/02 00:33:46;;;;;;;3.40;3.10;;;22.40;99.90;;;;;;6200881;28;95198;-67
2023/09/02 00:36:47;;;;;;;3.30;3.00;;;22.40;99.90;;;;;;6197638;28;93358;-67
2023/09/02 00:39:50;;;;;;;3.30;3.00;;;22.40;99.90;;;;;;6203869;28;94235;-66
2023/09/02 00:42:52;;;;;;;3.30;3.00;;;22.40;99.90;;;;;;6201386;28;94674;-66
2023/09/02 00:45:56;;;;;;;3.00;2.80;;;22.40;99.90;;;;;;6193663;28;95055;-67
2023/09/02 00:48:58;;;;;;;4.55;3.38;;;22.40;99.90;;;;;;6201099;28;94198;-66
2023/09/02 00:52:00;;;;;;;3.80;3.20;;;22.40;99.90;;;;;;6204669;28;94107;-67
2023/09/02 00:55:03;;;;;;;3.63;3.00;;;22.40;99.90;;;;;;6185723;28;94266;-66
2023/09/02 00:58:05;;;;;;;2.97;2.67;;;22.40;99.90;;;;;;6192525;28;94069;-66
2023/09/02 01:01:08;;;;;;;3.20;2.90;;;22.40;99.90;;;;;;6197429;28;94050;-66
2023/09/02 01:04:10;;;;;;;3.92;3.35;;;22.40;99.90;;;;;;6202821;28;94136;-66
2023/09/02 01:07:12;;;;;;;3.38;3.08;;;22.40;99.90;;;;;;6192701;28;93419;-66
2023/09/02 01:10:14;;;;;;;3.33;2.80;;;22.40;99.90;;;;;;6192562;28;94088;-66
2023/09/02 01:13:16;;;;;;;3.40;3.10;;;22.40;99.90;;;;;;6184720;28;94487;-66
2023/09/02 01:16:19;;;;;;;3.10;2.80;;;22.40;99.90;;;;;;6195472;28;95068;-66
2023/09/02 01:19:22;;;;;;;3.30;3.00;;;22.40;99.90;;;;;;6198081;28;94113;-66
2023/09/02 01:22:57;;;;;;;3.20;2.90;;;22.40;99.90;;;;;;6202588;28;95424;-67
2023/09/02 01:26:15;;;;;;;3.55;3.22;;;22.40;99.90;;;;;;6175282;28;94513;-66
2023/09/02 01:29:21;;;;;;;3.20;2.90;;;22.40;99.90;;;;;;6196407;28;94181;-66
2023/09/02 01:32:27;;;;;;;3.17;2.88;;;22.40;99.90;;;;;;6188916;28;94194;-66
2023/09/02 01:35:32;;;;;;;3.30;3.00;;;22.40;99.90;;;;;;6191194;28;94132;-66
2023/09/02 01:38:36;;;;;;;4.43;3.50;;;22.40;99.90;;;;;;6194046;28;93351;-66
2023/09/02 01:41:38;;;;;;;4.05;3.30;;;22.40;99.90;;;;;;6202506;28;94098;-66
2023/09/02 01:44:42;;;;;;;3.25;2.60;;;22.40;99.90;;;;;;6196490;28;94032;-66
2023/09/02 01:47:45;;;;;;;3.33;3.03;;;22.40;99.90;;;;;;6190249;28;95110;-66
2023/09/02 01:50:48;;;;;;;3.47;3.17;;;22.40;99.90;;;;;;6200444;28;94056;-66
2023/09/02 01:53:50;;;;;;;3.20;2.90;;;22.40;99.90;;;;;;6198226;28;94182;-66
2023/09/02 01:56:52;;;;;;;2.85;2.65;;;22.40;99.90;;;;;;6190267;28;94240;-67
2023/09/02 01:59:55;;;;;;;5.05;3.08;;;22.40;99.90;;;;;;6192782;28;94338;-66
2023/09/02 02:02:59;;;;;;;3.30;3.00;;;22.40;99.90;;;;;;6194620;28;94016;-66
2023/09/02 02:06:03;;;;;;;3.50;3.20;;;22.40;99.90;;;;;;6201557;28;94211;-66
2023/09/02 02:09:08;;;;;;;2.88;2.67;;;22.40;99.90;;;;;;6190031;28;93636;-67
2023/09/02 02:12:11;;;;;;;3.33;3.03;;;22.40;99.90;;;;;;6197448;28;94127;-66
2023/09/02 02:15:14;;;;;;;3.65;3.30;;;22.40;99.90;;;;;;6197901;28;94057;-67
2023/09/02 02:18:16;;;;;;;3.50;3.20;;;22.40;99.90;;;;;;6185335;28;95075;-66
2023/09/02 02:21:19;;;;;;;3.30;3.00;;;22.40;99.90;;;;;;6194156;28;94497;-67
2023/09/02 02:24:21;;;;;;;3.33;3.00;;;22.40;99.90;;;;;;6183283;28;94158;-66
2023/09/02 02:27:23;;;;;;;3.60;3.30;;;22.40;99.90;;;;;;6180043;28;94145;-67
2023/09/02 02:30:26;;;;;;;3.00;2.70;;;22.40;99.90;;;;;;6190946;28;94222;-66
2023/09/02 02:33:28;;;;;;;3.60;3.30;;;22.30;99.90;;;;;;6191263;28;94067;-67
2023/09/02 02:36:30;;;;;;;3.50;3.20;;;22.40;99.90;;;;;;6194946;28;94075;-66
2023/09/02 02:39:32;;;;;;;3.25;2.95;;;22.40;99.90;;;;;;6196407;28;93233;-66
2023/09/02 02:42:34;;;;;;;3.40;3.10;;;22.40;99.90;;;;;;6192612;28;94038;-67
2023/09/02 02:45:37;;;;;;;3.88;3.45;;;22.30;99.90;;;;;;6187158;28;94324;-66
2023/09/02 02:48:39;;;;;;;3.70;3.33;;;22.40;99.90;;;;;;6192145;28;95322;-67
2023/09/02 02:51:41;;;;;;;4.00;3.60;;;22.40;99.90;;;;;;6191867;28;94069;-67
2023/09/02 02:54:43;;;;;;;3.80;3.35;;;22.40;99.90;;;;;;6201362;28;94345;-66
2023/09/02 02:57:45;;;;;;;3.78;3.38;;;22.40;99.90;;;;;;6195755;28;94180;-67
2023/09/02 03:00:49;;;;;;;3.58;3.25;;;22.40;99.90;;;;;;6191466;28;94128;-66
2023/09/02 03:03:51;;;;;;;3.22;2.92;;;22.30;99.90;;;;;;6188939;28;94106;-66
2023/09/02 03:06:53;;;;;;;3.97;3.50;;;22.30;99.90;;;;;;6191696;28;94062;-66
2023/09/02 03:09:55;;;;;;;3.50;3.20;;;22.40;99.90;;;;;;6193711;28;93371;-67
2023/09/02 03:12:57;;;;;;;3.83;3.38;;;22.40;99.90;;;;;;6184926;28;93009;-67
2023/09/02 03:16:02;;;;;;;3.63;3.33;;;22.30;99.90;;;;;;6194505;28;93129;-66
2023/09/02 03:19:03;;;;;;;3.55;3.25;;;22.30;99.90;;;;;;6191579;28;95061;-67
2023/09/02 03:22:05;;;;;;;3.70;3.40;;;22.40;99.90;;;;;;6192868;28;93936;-67
2023/09/02 03:25:08;;;;;;;3.90;3.35;;;22.30;99.90;;;;;;6190019;28;94093;-66
2023/09/02 03:28:12;;;;;;;3.88;3.58;;;22.30;99.90;;;;;;6195688;28;94087;-66
2023/09/02 03:31:15;;;;;;;4.07;3.40;;;22.30;99.90;;;;;;6197735;28;94063;-66
2023/09/02 03:34:17;;;;;;;4.00;3.60;;;22.30;99.90;;;;;;6194286;28;94070;-66
2023/09/02 03:37:19;;;;;;;3.63;3.33;;;22.30;99.90;;;;;;6204276;28;94058;-66
2023/09/02 03:40:21;;;;;;;3.85;3.42;;;22.30;99.90;;;;;;6188417;28;92607;-66
2023/09/02 03:43:23;;;;;;;3.65;3.20;;;22.30;99.90;;;;;;6194467;28;93996;-66
2023/09/02 03:46:27;;;;;;;3.65;3.35;;;22.30;99.90;;;;;;6194615;28;94090;-66
2023/09/02 03:49:29;;;;;;;3.72;3.38;;;22.40;99.90;;;;;;6190735;28;95853;-67
2023/09/02 03:52:31;;;;;;;3.72;3.33;;;22.30;99.90;;;;;;6201364;28;94147;-66
2023/09/02 03:55:33;;;;;;;3.88;3.17;;;22.30;99.90;;;;;;6202135;28;94534;-66
2023/09/02 03:58:35;;;;;;;4.72;3.88;;;22.30;99.90;;;;;;6198434;28;94200;-66
2023/09/02 04:01:39;;;;;;;5.07;4.05;;;22.30;99.90;;;;;;6197432;28;94146;-66
2023/09/02 04:04:41;;;;;;;4.07;3.65;;;22.30;99.90;;;;;;6182631;28;93300;-66
2023/09/02 04:07:43;;;;;;;3.85;3.45;;;22.30;99.90;;;;;;6203083;28;94232;-67
2023/09/02 04:10:45;;;;;;;3.53;3.22;;;22.30;99.90;;;;;;6190410;28;93365;-67
2023/09/02 04:13:47;;;;;;;3.70;3.40;;;22.30;99.90;;;;;;6196886;28;94079;-66
2023/09/02 04:16:50;;;;;;;3.30;3.00;;;22.30;99.90;;;;;;6203173;28;94197;-66
2023/09/02 04:19:54;;;;;;;3.70;3.40;;;22.30;99.90;;;;;;6195169;28;95216;-67
2023/09/02 04:22:56;;;;;;;5.38;4.00;;;22.30;99.90;;;;;;6200208;28;94338;-67
2023/09/02 04:25:59;;;;;;;4.38;3.85;;;22.30;99.90;;;;;;6195365;28;94100;-67
2023/09/02 04:29:01;;;;;;;3.50;3.20;;;22.30;99.90;;;;;;6193215;28;94287;-66
2023/09/02 04:32:05;;;;;;;3.45;3.15;;;22.30;99.90;;;;;;6194249;28;94551;-66
2023/09/02 04:35:07;;;;;;;4.28;3.20;;;22.30;99.90;;;;;;6195331;28;94034;-66
2023/09/02 04:38:10;;;;;;;3.30;3.00;;;22.30;99.90;;;;;;6203219;28;94118;-66
2023/09/02 04:41:12;;;;;;;3.72;3.42;;;22.30;99.90;;;;;;6200960;28;93365;-66
2023/09/02 04:44:17;;;;;;;3.63;3.30;;;22.20;99.90;;;;;;6190292;28;94146;-66
2023/09/02 04:47:20;;;;;;;3.13;2.83;;;22.30;99.90;;;;;;6194594;28;94103;-67
2023/09/02 04:50:22;;;;;;;4.43;3.38;;;22.20;99.90;;;;;;6193250;28;95015;-67
2023/09/02 04:53:24;;;;;;;3.40;3.10;;;22.30;99.90;;;;;;6198753;28;94356;-67
2023/09/02 04:56:27;;;;;;;3.55;3.10;;;22.30;99.90;;;;;;6195426;28;94112;-67
2023/09/02 04:59:29;;;;;;;3.85;3.10;;;22.30;99.90;;;;;;6194180;28;94052;-67
2023/09/02 05:02:32;;;;;;;3.70;3.17;;;22.30;99.90;;;;;;6194821;28;94406;-66
2023/09/02 05:05:34;;;;;;;3.25;2.95;;;22.30;99.90;;;;;;6198263;28;94161;-66
2023/09/02 05:08:36;;;;;;;3.20;2.90;;;22.30;99.90;;;;;;6198015;28;94618;-67
2023/09/02 05:11:38;;;;;;;3.42;3.13;;;22.30;99.90;;;;;;6191357;28;94189;-66
2023/09/02 05:14:40;;;;;;;3.17;2.90;;;22.30;99.90;;;;;;6191875;28;95079;-67
2023/09/02 05:17:44;;;;;;;5.63;3.92;;;22.30;99.90;;;;;;6194426;28;93981;-66
2023/09/02 05:20:46;;;;;;;3.50;3.20;;;22.30;99.90;;;;;;6189128;28;95141;-67
2023/09/02 05:23:48;;;;;;;4.07;3.58;;;22.30;99.90;;;;;;6182104;28;94213;-66
2023/09/02 05:26:50;;;;;;;3.88;3.42;;;22.30;99.90;;;;;;6200587;28;93328;-67
2023/09/02 05:29:52;;;;;;;3.38;3.08;;;22.30;99.90;;;;;;6189411;28;94112;-66
2023/09/02 05:32:55;;;;;;;3.45;3.15;;;22.30;99.90;;;;;;6198558;28;94078;-66
2023/09/02 05:35:57;;;;;;;3.42;3.10;;;22.30;99.90;;;;;;6192663;28;94151;-67
2023/09/02 05:38:59;;;;;;;3.72;3.42;;;22.20;99.90;;;;;;6190856;28;93299;-67
2023/09/02 05:42:02;;;;;;;3.85;3.10;;;22.30;99.90;;;;;;6193651;28;92140;-67
2023/09/02 05:45:05;;;;;;;6.30;4.03;;;22.30;99.90;;;;;;6200785;28;94941;-67
2023/09/02 05:48:08;;;;;;;3.90;3.50;;;22.30;99.90;;;;;;6185569;28;94795;-67
2023/09/02 05:51:10;;;;;;;4.00;3.60;;;22.30;99.90;;;;;;6185159;28;96493;-68
2023/09/02 05:54:12;;;;;;;3.30;3.00;;;22.30;99.90;;;;;;6190333;28;94067;-67
2023/09/02 05:57:14;;;;;;;3.80;3.50;;;22.30;99.90;;;;;;6193936;28;94124;-68
2023/09/02 06:00:17;;;;;;;3.50;3.20;;;22.40;99.90;;;;;;6200159;28;94079;-67
2023/09/02 06:03:20;;;;;;;3.95;3.60;;;22.30;99.90;;;;;;6200874;28;94158;-67
2023/09/02 06:06:23;;;;;;;3.88;3.50;;;22.40;99.90;;;;;;6194575;28;94139;-68
2023/09/02 06:09:26;;;;;;;3.70;3.30;;;22.40;99.90;;;;;;6185355;28;94059;-66
2023/09/02 06:12:29;;;;;;;3.60;3.30;;;22.40;99.90;;;;;;6194070;28;93511;-66
2023/09/02 06:15:31;;;;;;;4.13;3.45;;;22.40;99.90;;;;;;6191262;28;94184;-66
2023/09/02 06:18:36;;;;;;;3.70;3.40;;;22.40;99.90;;;;;;6187632;28;94304;-66
2023/09/02 06:21:38;;;;;;;3.60;3.30;;;22.40;99.90;;;;;;6193637;28;95358;-67
2023/09/02 06:24:40;;;;;;;3.42;3.13;;;22.40;99.90;;;;;;6185986;28;94326;-66
2023/09/02 06:27:42;;;;;;;3.72;3.42;;;22.40;99.90;;;;;;6202621;28;94232;-67
2023/09/02 06:30:44;;;;;;;5.95;3.70;;;22.50;99.90;;;;;;6189550;28;93999;-66
2023/09/02 06:33:47;;;;;;;4.13;3.72;;;22.40;99.90;;;;;;6186846;28;94170;-67
2023/09/02 06:36:49;;;;;;;4.50;3.50;;;22.40;99.90;;;;;;6193138;28;94104;-66
2023/09/02 06:39:53;;;;;;;4.65;3.67;;;22.50;99.90;;;;;;6199703;28;94270;-67
2023/09/02 06:42:55;;;;;;;3.42;3.13;;;22.50;99.90;;;;;;6188767;28;92664;-66
2023/09/02 06:45:57;;;;;;;3.90;3.45;;;22.50;99.90;;;;;;6187362;28;94092;-66
2023/09/02 06:49:03;;;;;;;3.40;3.10;;;22.50;99.90;;;;;;6184919;28;93130;-67
2023/09/02 06:52:05;;;;;;;4.15;3.22;;;22.50;99.90;;;;;;6196255;28;95031;-66
2023/09/02 06:55:07;;;;;;;3.83;3.53;;;22.50;99.90;;;;;;6191907;28;94310;-66
2023/09/02 06:58:09;;;;;;;3.90;3.50;;;22.50;99.90;;;;;;6186297;28;94087;-67
2023/09/02 07:01:21;;;;;;;3.65;3.35;;;22.50;99.90;;;;;;6195500;28;94089;-66
2023/09/02 07:04:25;;;;;;;3.70;3.40;;;22.50;99.90;;;;;;6189358;28;94077;-67
2023/09/02 07:07:27;;;;;;;3.35;3.05;;;22.50;99.90;;;;;;6200808;28;94082;-67
2023/09/02 07:10:29;;;;;;;3.70;3.38;;;22.50;99.90;;;;;;6186178;28;94085;-67
2023/09/02 07:13:31;;;;;;;4.10;3.70;;;22.50;99.90;;;;;;6195989;28;93670;-67
2023/09/02 07:16:33;;;;;;;4.35;3.78;;;22.50;99.90;;;;;;6184789;28;94212;-67
2023/09/02 07:19:36;;;;;;;4.68;3.53;;;22.50;99.90;;;;;;6187825;28;94093;-68
2023/09/02 07:22:38;;;;;;;3.47;3.17;;;22.40;99.90;;;;;;6195188;28;96130;-67
2023/09/02 07:25:40;;;;;;;4.88;3.83;;;22.50;99.90;;;;;;6199909;28;94274;-67
2023/09/02 07:28:42;;;;;;;4.90;3.70;;;22.50;99.90;;;;;;6192113;28;94168;-67
2023/09/02 07:31:44;;;;;;;4.03;3.50;;;22.50;99.90;;;;;;6189647;28;94136;-67
2023/09/02 07:34:48;;;;;;;3.50;3.20;;;22.60;99.90;;;;;;6185565;28;94348;-67
2023/09/02 07:37:55;;;;;;;3.85;3.50;;;22.60;99.90;;;;;;6198307;28;94101;-67
2023/09/02 07:40:57;;;;;;;3.90;3.42;;;22.60;99.90;;;;;;6200072;28;94178;-67
2023/09/02 07:43:59;;;;;;;3.80;3.35;;;22.60;99.90;;;;;;6195482;28;93384;-67
2023/09/02 07:47:01;;;;;;;3.72;3.40;;;22.60;99.90;;;;;;6183547;28;93421;-68
2023/09/02 07:50:05;;;;;;;4.07;3.67;;;22.60;99.90;;;;;;6191840;28;94115;-67
2023/09/02 07:53:07;;;;;;;3.78;3.40;;;22.60;99.90;;;;;;6190901;28;94892;-67
2023/09/02 07:56:09;;;;;;;3.58;3.28;;;22.60;99.90;;;;;;6197509;28;94533;-67
2023/09/02 07:59:11;;;;;;;3.50;3.20;;;22.60;99.90;;;;;;6187653;28;94422;-67
2023/09/02 08:02:13;;;;;;;3.80;3.40;;;22.60;99.90;;;;;;6187134;28;94153;-67
2023/09/02 08:05:16;;;;;;;4.00;3.60;;;22.60;99.90;;;;;;6187359;28;94093;-67
2023/09/02 08:08:18;;;;;;;3.95;3.50;;;22.60;99.90;;;;;;6187688;28;94153;-67
2023/09/02 08:11:20;;;;;;;3.92;3.53;;;22.60;99.90;;;;;;6186479;28;94512;-67
2023/09/02 08:14:22;;;;;;;5.05;3.78;;;22.60;99.90;;;;;;6199496;28;93330;-67
2023/09/02 08:17:25;;;;;;;4.18;3.17;;;22.60;99.90;;;;;;6195356;28;94474;-67
2023/09/02 08:20:30;;;;;;;3.55;3.25;;;22.60;99.90;;;;;;6185368;28;93003;-67
2023/09/02 08:23:31;;;;;;;3.78;3.47;;;22.60;99.90;;;;;;6204193;28;95077;-67
2023/09/02 08:26:33;;;;;;;4.13;3.50;;;22.60;99.90;;;;;;6197960;28;94071;-67
2023/09/02 08:29:35;;;;;;;3.65;3.30;;;22.60;99.90;;;;;;6204629;28;94117;-66
2023/09/02 08:32:37;;;;;;;3.60;3.30;;;22.60;99.90;;;;;;6190969;28;94147;-67
2023/09/02 08:35:41;;;;;;;3.88;3.40;;;22.60;99.90;;;;;;6189305;28;94734;-67
2023/09/02 08:38:43;;;;;;;3.50;3.20;;;22.60;99.90;;;;;;6199184;28;94547;-66
2023/09/02 08:41:48;;;;;;;4.53;3.90;;;22.60;99.90;;;;;;6194218;28;93988;-66
2023/09/02 08:44:50;;;;;;;3.58;3.28;;;22.60;99.90;;;;;;6204206;28;93334;-66
2023/09/02 08:47:56;;;;;;;3.38;3.08;;;22.60;99.90;;;;;;6203508;28;94210;-67
2023/09/02 08:51:00;;;;;;;4.00;3.42;;;22.60;99.90;;;;;;6192967;28;94330;-66
2023/09/02 08:54:03;;;;;;;4.00;3.63;;;22.60;99.90;;;;;;6196043;28;95363;-66
2023/09/02 08:57:06;;;;;;;3.70;3.40;;;22.60;99.90;;;;;;6194772;28;94291;-67
2023/09/02 09:00:09;;;;;;;3.70;3.30;;;22.60;99.90;;;;;;6199097;28;94481;-66
2023/09/02 09:03:12;;;;;;;4.75;4.03;;;22.60;99.90;;;;;;6195164;28;94359;-67
2023/09/02 09:06:17;;;;;;;3.90;3.50;;;22.60;99.90;;;;;;6202455;28;94122;-67
2023/09/02 09:09:22;;;;;;;4.40;3.40;;;22.60;99.90;;;;;;6186337;28;94112;-67
2023/09/02 09:12:26;;;;;;;3.97;3.60;;;22.60;99.90;;;;;;6189984;28;94097;-67
2023/09/02 09:15:29;;;;;;;3.83;3.42;;;22.60;99.90;;;;;;6190088;28;93384;-67
2023/09/02 09:18:31;;;;;;;3.55;3.25;;;22.60;99.90;;;;;;6185175;28;94129;-66
2023/09/02 09:21:34;;;;;;;3.72;3.25;;;22.60;99.90;;;;;;6197426;28;94351;-67
2023/09/02 09:24:36;;;;;;;3.92;3.53;;;22.60;99.90;;;;;;6190683;28;95032;-67
2023/09/02 09:27:39;;;;;;;4.32;3.78;;;22.60;99.90;;;;;;6182251;28;94533;-67
2023/09/02 09:30:41;;;;;;;4.00;3.67;;;22.60;99.90;;;;;;6198772;28;94877;-67
2023/09/02 09:33:50;;;;;;;3.72;3.42;;;22.60;99.90;;;;;;6195016;28;94083;-67
2023/09/02 09:36:58;;;;;;;3.95;3.50;;;22.60;99.90;;;;;;6187706;28;94365;-67
2023/09/02 09:40:01;;;;;;;4.30;3.90;;;22.60;99.90;;;;;;6195839;28;94069;-67
2023/09/02 09:43:15;;;;;;;4.07;3.67;;;22.60;99.90;;;;;;6192139;28;94030;-67
2023/09/02 09:46:17;;;;;;;4.50;3.53;;;22.60;99.90;;;;;;6194400;28;93479;-67
2023/09/02 09:49:23;;;;;;;5.55;3.75;;;22.60;99.90;;;;;;6194042;28;94198;-68
2023/09/02 09:52:29;;;;;;;4.30;3.80;;;22.60;99.90;;;;;;6199653;28;94149;-67
2023/09/02 09:55:31;;;;;;;4.68;3.63;;;22.60;99.90;;;;;;6197452;28;95051;-68
2023/09/02 09:58:33;;;;;;;4.10;3.70;;;22.60;99.90;;;;;;6195285;28;94283;-68
2023/09/02 10:01:36;;;;;;;5.25;3.90;;;22.60;99.90;;;;;;6197259;28;94261;-68
2023/09/02 10:04:38;;;;;;;4.68;3.85;;;22.70;99.90;;;;;;6202039;28;94057;-69
2023/09/02 10:07:42;;;;;;;4.22;3.70;;;22.60;99.90;;;;;;6197714;28;94100;-69
2023/09/02 10:10:43;;;;;;;4.03;3.67;;;22.70;99.90;;;;;;6189856;28;96530;-69
2023/09/02 10:13:46;;;;;;;3.90;3.55;;;22.70;99.90;;;;;;6186032;28;94378;-69
2023/09/02 10:16:48;;;;;;;4.80;4.30;;;22.70;99.90;;;;;;6183452;28;92602;-67
2023/09/02 10:19:49;;;;;;;4.70;3.88;;;22.70;99.90;;;;;;6193530;28;94092;-69
2023/09/02 10:22:54;;;;;;;6.07;4.00;;;22.70;99.90;;;;;;6200996;28;94167;-68
2023/09/02 10:26:06;;;;;;;9.75;5.47;;;22.70;99.90;;;;;;6201432;28;95923;-69
2023/09/02 10:29:12;;;;;;;11.55;5.72;;;22.70;99.90;;;;;;6203081;28;94693;-68
2023/09/02 10:32:15;;;;;;;13.10;6.70;;;22.70;99.90;;;;;;6189251;28;93402;-68
2023/09/02 10:35:22;;;;;;;10.43;6.03;;;22.70;99.90;;;;;;6201838;28;94051;-68
2023/09/02 10:38:27;;;;;;;16.05;6.95;;;22.70;99.90;;;;;;6200834;28;94036;-67
2023/09/02 10:41:31;;;;;;;16.27;7.32;;;22.70;99.90;;;;;;6191291;28;94039;-67
2023/09/02 10:44:33;;;;;;;13.35;6.82;;;22.70;99.90;;;;;;6195255;28;94073;-67
2023/09/02 10:47:36;;;;;;;12.02;6.30;;;22.70;99.90;;;;;;6188169;28;93381;-68
2023/09/02 10:50:40;;;;;;;12.25;6.47;;;22.80;99.90;;;;;;6182862;28;94039;-68
2023/09/02 10:54:01;;;;;;;20.10;7.93;;;22.80;99.90;;;;;;6192760;28;94114;-67
2023/09/02 10:57:13;;;;;;;22.80;8.10;;;22.80;99.90;;;;;;6190685;28;95193;-68
2023/09/02 11:00:17;;;;;;;21.23;8.85;;;22.80;99.90;;;;;;6197534;28;94053;-68
2023/09/02 11:03:43;;;;;;;22.02;8.95;;;22.80;99.90;;;;;;6194398;28;92924;-68
2023/09/02 11:07:25;;;;;;;22.52;9.88;;;22.80;99.90;;;;;;6193429;28;94223;-68
2023/09/02 11:10:53;;;;;;;19.45;8.77;;;22.80;99.90;;;;;;6199702;28;93307;-68
2023/09/02 11:14:21;;;;;;;19.45;9.10;;;22.90;99.90;;;;;;6182761;28;94055;-68
2023/09/02 11:17:30;;;;;;;17.10;8.27;;;22.90;99.90;;;;;;6201312;28;94828;-66
2023/09/02 11:20:49;;;;;;;17.80;8.20;;;22.80;99.90;;;;;;6198193;28;93925;-66
2023/09/02 11:23:51;;;;;;;15.35;8.15;;;22.90;99.90;;;;;;6192391;28;94226;-66
2023/09/02 11:26:56;;;;;;;15.77;7.57;;;22.90;99.90;;;;;;6198362;28;96029;-66
2023/09/02 11:30:10;;;;;;;16.05;7.85;;;22.90;99.90;;;;;;6200164;28;94028;-66
2023/09/02 11:33:19;;;;;;;15.82;7.97;;;22.90;99.90;;;;;;6184728;28;95158;-66
2023/09/02 11:36:21;;;;;;;14.25;7.60;;;22.90;99.90;;;;;;6181588;28;94108;-66
2023/09/02 11:39:26;;;;;;;11.88;6.90;;;22.90;99.90;;;;;;6188739;28;94109;-66
2023/09/02 11:42:30;;;;;;;13.98;6.70;;;23.00;99.90;;;;;;6189401;28;94099;-66
2023/09/02 11:45:33;;;;;;;12.70;6.80;;;22.90;99.90;;;;;;6192376;28;94154;-66
2023/09/02 11:48:35;;;;;;;11.15;6.47;;;23.00;99.90;;;;;;6189363;28;94089;-67
2023/09/02 11:51:37;;;;;;;13.10;6.93;;;22.90;99.90;;;;;;6204975;28;93346;-66
2023/09/02 11:54:40;;;;;;;10.60;7.03;;;23.00;99.90;;;;;;6205706;28;95102;-67
2023/09/02 11:57:44;;;;;;;9.38;6.35;;;23.00;99.90;;;;;;6182372;28;94316;-66
2023/09/02 12:00:46;;;;;;;10.68;6.15;;;23.00;99.90;;;;;;6203523;28;94952;-66
2023/09/02 12:03:48;;;;;;;10.50;6.40;;;23.00;99.90;;;;;;6190231;28;94849;-66
2023/09/02 12:06:51;;;;;;;12.07;5.80;;;23.00;99.90;;;;;;6198902;28;94437;-66
2023/09/02 12:09:54;;;;;;;13.32;6.95;;;23.00;99.90;;;;;;6202760;28;94291;-66
2023/09/02 12:12:58;;;;;;;9.20;5.78;;;23.00;99.90;;;;;;6206589;28;94024;-66
2023/09/02 12:16:01;;;;;;;10.95;5.97;;;23.00;99.90;;;;;;6195598;28;94118;-66
2023/09/02 12:19:03;;;;;;;12.35;6.43;;;23.00;99.90;;;;;;6205466;28;94124;-66
2023/09/02 12:22:06;;;;;;;10.45;6.00;;;23.00;99.90;;;;;;6206307;28;93404;-66
2023/09/02 12:25:13;;;;;;;11.75;6.22;;;23.00;99.90;;;;;;6193174;28;94107;-66
2023/09/02 12:28:16;;;;;;;10.25;6.00;;;23.00;99.90;;;;;;6189163;28;94186;-66
2023/09/02 12:31:20;;;;;;;9.00;5.72;;;23.00;99.90;;;;;;6199871;28;95313;-66
2023/09/02 12:34:22;;;;;;;9.25;5.40;;;23.00;99.90;;;;;;6194697;28;94164;-66
2023/09/02 12:37:24;;;;;;;9.15;5.25;;;23.00;99.90;;;;;;6197827;28;94391;-66
2023/09/02 12:40:26;;;;;;;7.63;5.30;;;23.00;99.90;;;;;;6198377;28;94116;-66
2023/09/02 12:43:30;;;;;;;10.38;5.75;;;23.00;99.90;;;;;;6183590;28;94093;-66
2023/09/02 12:46:32;;;;;;;8.13;5.05;;;23.00;99.90;;;;;;6203656;28;94098;-66
2023/09/02 12:49:33;;;;;;;6.65;4.95;;;23.00;99.90;;;;;;6194752;28;94397;-66
2023/09/02 12:52:36;;;;;;;7.75;5.03;;;23.00;99.90;;;;;;6188844;28;93619;-66
2023/09/02 12:55:41;;;;;;;8.02;5.40;;;23.00;99.90;;;;;;6191074;28;94135;-66
2023/09/02 12:58:44;;;;;;;9.65;5.10;;;23.00;99.90;;;;;;6185025;28;94323;-66
2023/09/02 13:01:46;;;;;;;8.23;5.10;;;23.00;99.90;;;;;;6185345;28;95057;-66
2023/09/02 13:04:48;;;;;;;10.75;5.68;;;23.10;99.90;;;;;;6201366;28;94021;-66
2023/09/02 13:07:51;;;;;;;10.15;5.22;;;23.00;99.90;;;;;;6197509;28;94393;-66
2023/09/02 13:10:53;;;;;;;11.77;5.60;;;23.00;99.90;;;;;;6204138;28;94050;-66
2023/09/02 13:13:57;;;;;;;9.80;5.68;;;23.00;99.90;;;;;;6193958;28;94742;-66
2023/09/02 13:16:59;;;;;;;11.05;5.85;;;23.00;99.90;;;;;;6198860;28;94189;-66
2023/09/02 13:20:03;;;;;;;11.30;5.97;;;23.00;99.90;;;;;;6201116;28;94337;-66
2023/09/02 13:23:06;;;;;;;10.02;5.50;;;23.00;99.90;;;;;;6197168;28;93371;-66
2023/09/02 13:26:14;;;;;;;12.30;5.53;;;23.00;99.90;;;;;;6186181;28;94145;-66
2023/09/02 13:29:23;;;;;;;11.70;5.57;;;23.00;99.90;;;;;;6202506;28;94259;-66
2023/09/02 13:32:27;;;;;;;9.52;5.38;;;23.00;99.90;;;;;;6201341;28;93999;-66
2023/09/02 13:35:30;;;;;;;8.32;5.10;;;23.00;99.90;;;;;;6201159;28;93382;-66
2023/09/02 13:38:33;;;;;;;10.02;5.45;;;23.00;99.90;;;;;;6187868;28;96107;-66
2023/09/02 13:41:36;;;;;;;9.07;4.95;;;23.00;99.90;;;;;;6203958;28;93570;-66
2023/09/02 13:44:42;;;;;;;7.30;4.50;;;23.00;99.90;;;;;;6192320;28;94391;-66
2023/09/02 13:47:49;;;;;;;9.50;4.78;;;23.00;99.90;;;;;;6200907;28;94837;-66
2023/09/02 13:51:00;;;;;;;8.20;4.95;;;23.00;99.90;;;;;;6201419;28;93070;-66
2023/09/02 13:54:04;;;;;;;7.55;4.70;;;23.00;99.90;;;;;;6203131;28;92456;-66
2023/09/02 13:57:07;;;;;;;8.50;4.60;;;23.00;99.90;;;;;;6197694;28;93051;-66
2023/09/02 14:00:22;;;;;;;9.73;4.97;;;23.00;99.90;;;;;;6196170;28;92994;-66
2023/09/02 14:03:28;;;;;;;8.93;5.45;;;23.00;99.90;;;;;;6191129;28;93994;-66
2023/09/02 14:06:32;;;;;;;6.45;4.13;;;23.00;99.90;;;;;;6192158;28;93109;-67
2023/09/02 14:09:34;;;;;;;6.97;4.55;;;23.00;99.90;;;;;;6200842;28;92963;-67
2023/09/02 14:12:37;;;;;;;6.55;4.60;;;23.00;99.90;;;;;;6184259;28;94054;-67
2023/09/02 14:15:41;;;;;;;6.78;4.65;;;23.00;99.90;;;;;;6197317;28;93064;-67
2023/09/02 14:18:44;;;;;;;7.05;4.30;;;23.00;99.90;;;;;;6182562;28;94513;-66
2023/09/02 14:21:47;;;;;;;7.13;4.28;;;23.00;99.90;;;;;;6199907;28;94022;-66
2023/09/02 14:24:50;;;;;;;8.07;4.32;;;23.00;99.90;;;;;;6196051;28;92280;-66
2023/09/02 14:27:53;;;;;;;8.13;4.65;;;23.10;99.90;;;;;;6195954;28;93197;-67
2023/09/02 14:30:58;;;;;;;6.78;4.35;;;23.10;99.90;;;;;;6198479;28;93202;-66
2023/09/02 14:34:01;;;;;;;7.53;4.20;;;23.10;99.90;;;;;;6192770;28;94354;-66
2023/09/02 14:37:05;;;;;;;6.95;4.40;;;23.10;99.90;;;;;;6188969;28;93146;-66
2023/09/02 14:40:09;;;;;;;7.78;4.80;;;23.10;99.90;;;;;;6187041;28;93180;-66
2023/09/02 14:43:12;;;;;;;6.10;3.83;;;23.20;99.90;;;;;;6197957;28;93370;-66
2023/09/02 14:46:17;;;;;;;7.25;4.32;;;23.20;99.90;;;;;;6189272;28;95492;-66
2023/09/02 14:49:20;;;;;;;5.28;4.07;;;23.10;99.90;;;;;;6192037;28;93336;-66
2023/09/02 14:52:25;;;;;;;6.47;4.38;;;23.10;99.90;;;;;;6194386;28;93140;-66
2023/09/02 14:55:28;;;;;;;6.55;3.95;;;23.10;99.90;;;;;;6197198;28;91421;-66
2023/09/02 14:58:33;;;;;;;5.65;3.97;;;23.20;99.90;;;;;;6199355;28;94033;-66
2023/09/02 15:01:37;;;;;;;5.45;3.97;;;23.10;99.90;;;;;;6196184;28;94624;-66
2023/09/02 15:04:40;;;;;;;4.93;3.78;;;23.10;99.90;;;;;;6192510;28;95000;-66
2023/09/02 15:07:44;;;;;;;6.30;3.85;;;23.10;99.90;;;;;;6208828;28;93031;-66
2023/09/02 15:10:47;;;;;;;5.07;3.60;;;23.10;99.90;;;;;;6189564;28;92844;-66
2023/09/02 15:13:50;;;;;;;8.32;4.05;;;23.10;99.90;;;;;;6197979;28;94357;-66
2023/09/02 15:16:54;;;;;;;6.68;3.70;;;23.10;99.90;;;;;;6192337;28;93949;-66
2023/09/02 15:19:57;;;;;;;5.38;3.75;;;23.10;99.90;;;;;;6183921;28;94068;-67
2023/09/02 15:23:00;;;;;;;13.68;4.70;;;23.10;99.90;;;;;;6203818;28;94122;-67
2023/09/02 15:26:03;;;;;;;11.15;4.43;;;23.10;99.90;;;;;;6187558;28;92366;-66
2023/09/02 15:29:12;;;;;;;9.40;4.53;;;23.10;99.90;;;;;;6190842;28;93088;-67
2023/09/02 15:32:16;;;;;;;11.75;5.05;;;23.20;99.90;;;;;;6199723;28;93066;-67
2023/09/02 15:35:19;;;;;;;9.15;4.00;;;23.20;99.90;;;;;;6198179;28;94523;-67
2023/09/02 15:38:22;;;;;;;6.57;4.10;;;23.20;99.90;;;;;;6187112;28;94124;-68
2023/09/02 15:41:24;;;;;;;7.47;4.00;;;23.20;99.90;;;;;;6203271;28;94006;-67
2023/09/02 15:44:27;;;;;;;9.82;4.20;;;23.20;99.90;;;;;;6202280;28;92797;-68
2023/09/02 15:47:32;;;;;;;7.05;3.80;;;23.20;99.90;;;;;;6194631;28;94910;-68
2023/09/02 15:50:35;;;;;;;7.05;3.85;;;23.30;99.90;;;;;;6187496;28;93192;-67
2023/09/02 15:53:39;;;;;;;8.73;4.00;;;23.20;99.90;;;;;;6191093;28;93042;-68